Date,TemperatureHighF,TemperatureAvgF,TemperatureLowF,DewpointHighF,DewpointAvgF,DewpointLowF,HumidityHigh,HumidityAvg,HumidityLow,PressureMaxIn,PressureMinIn,WindSpeedMaxMPH,WindSpeedAvgMPH,GustSpeedMaxMPH,PrecipitationSumIn
2013-1-1,57.6,51.0,45.7,49.1,45.0,42.0,88,80,67,30.12,30.04,10,1,16,9.10
2013-1-2,60.1,50.1,43.0,51.1,44.4,39.4,88,81,66,30.29,30.11,9,1,9,0.00
2013-1-3,60.4,50.9,44.6,50.3,44.5,40.8,88,79,65,30.38,30.28,11,1,11,0.00
2013-1-4,61.2,51.3,44.4,44.8,39.3,33.7,79,65,39,30.30,30.02,10,0,10,0.00
2013-1-5,56.8,51.1,45.9,38.6,36.9,33.7,73,59,45,30.02,29.75,13,1,13,0.00
2013-1-6,50.9,46.4,42.1,38.5,35.9,31.3,75,67,59,29.87,29.68,20,3,20,0.00
2013-1-7,52.5,45.3,39.0,31.9,29.4,23.0,66,54,41,29.98,29.82,22,4,22,0.00
2013-1-8,43.5,36.9,33.6,32.9,28.4,20.6,84,72,40,30.17,29.96,22,3,22,0.12
2013-1-9,48.0,40.3,33.6,30.5,27.6,23.6,72,61,48,30.22,30.14,21,1,21,0.00
2013-1-10,53.4,43.9,34.7,36.9,31.4,26.8,73,62,44,30.17,29.99,11,1,11,0.00
2013-1-11,61.5,53.0,45.0,54.0,46.1,36.9,89,78,63,30.00,29.79,10,1,10,0.10
2013-1-12,61.5,50.7,43.3,51.1,42.9,38.7,87,75,58,30.01,29.79,13,1,13,0.00
2013-1-13,60.1,49.0,41.7,45.9,40.6,36.7,85,73,52,30.20,30.01,12,2,12,0.00
2013-1-14,54.7,49.4,46.6,46.9,43.5,40.6,83,80,75,30.27,30.19,7,2,7,0.00
2013-1-16,57.0,54.0,51.3,52.7,47.5,43.2,88,79,68,29.88,29.63,21,4,21,1.20
2013-1-17,58.8,52.1,45.1,50.0,44.5,39.6,83,76,64,29.76,29.65,19,3,19,0.02
2013-1-18,57.7,52.4,46.4,50.0,45.0,38.9,83,76,67,29.52,29.44,28,4,28,0.16
2013-1-19,57.4,49.9,43.2,42.0,39.1,36.8,82,67,51,29.83,29.50,24,2,24,0.00
2013-1-20,66.0,55.3,47.7,52.4,46.6,40.4,82,73,56,29.93,29.82,13,1,13,0.02
2013-1-21,65.8,57.8,49.8,53.2,49.0,45.0,87,73,49,29.90,29.62,24,3,24,0.02
2013-1-22,64.2,56.3,48.9,52.2,47.8,44.9,86,74,54,29.78,29.64,16,2,16,0.02
2013-1-23,61.7,55.7,51.4,46.5,42.7,40.4,73,62,47,29.93,29.77,17,1,17,0.00
2013-1-24,62.4,54.5,46.6,52.9,47.2,41.5,85,77,65,29.93,29.56,29,4,29,0.50
2013-1-25,58.5,49.9,43.3,48.9,44.5,39.3,87,82,66,29.64,29.47,32,4,32,0.59
2013-1-26,58.5,50.2,46.8,50.2,44.9,42.3,86,82,67,29.62,29.42,13,1,13,0.39
2013-1-27,55.4,48.3,45.0,46.5,42.3,40.5,88,80,64,29.91,29.62,15,1,15,0.17
2013-1-28,57.0,49.9,45.1,45.0,41.3,37.3,82,73,61,29.98,29.88,17,1,17,0.17
2013-1-29,50.2,46.2,42.1,42.7,40.0,37.2,84,79,71,30.09,29.97,13,1,13,0.17
2013-1-30,59.2,49.4,40.3,43.2,35.3,27.6,84,62,33,30.07,29.92,12,1,12,3.14
2013-1-31,62.8,52.5,42.6,45.7,38.8,32.1,75,60,47,29.99,29.81,22,2,22,0.02
2013-2-1,60.1,52.4,43.9,40.2,35.4,30.5,72,53,39,30.04,29.87,16,2,16,0.02
2013-2-2,64.6,53.9,44.1,51.3,45.2,37.7,84,73,56,29.88,29.75,17,2,17,0.00
2013-2-3,65.1,60.1,57.0,54.3,52.6,50.6,85,77,62,29.90,29.75,38,9,38,0.02
2013-2-4,67.8,60.0,55.4,56.3,52.3,49.2,86,76,59,29.96,29.88,16,1,16,0.02
2013-2-5,62.8,57.4,51.3,52.3,49.1,43.8,86,74,59,29.97,29.81,19,1,19,0.02
2013-2-6,63.7,54.7,46.2,51.7,46.5,41.0,84,74,59,29.83,29.65,13,2,13,0.00
2013-2-7,61.3,54.8,50.7,50.9,47.5,43.3,85,76,65,29.69,29.49,35,6,35,0.37
2013-2-8,57.9,52.0,46.9,46.7,42.4,39.6,82,70,57,29.72,29.51,14,2,14,0.00
2013-2-9,60.1,51.0,41.5,45.7,40.1,36.7,84,68,49,29.84,29.72,19,2,19,0.00
2013-2-10,60.4,51.9,45.1,42.9,39.0,36.3,76,62,46,29.87,29.76,15,1,15,0.00
2013-2-11,56.7,48.7,43.5,37.7,35.3,32.3,77,61,46,30.03,29.74,19,2,19,0.00
2013-2-12,61.2,51.0,39.6,46.5,40.3,31.8,77,67,46,30.06,29.96,17,2,17,0.00
2013-2-13,56.5,51.9,46.6,48.7,45.3,41.7,89,78,66,29.97,29.86,31,2,31,1.24
2013-2-14,52.5,49.1,47.3,48.1,44.9,43.3,87,86,81,29.88,29.65,15,1,15,0.33
2013-2-15,52.0,48.3,45.5,46.1,43.3,40.7,88,83,73,30.00,29.65,22,2,22,0.26
2013-2-16,56.7,49.7,44.4,46.3,43.2,39.9,85,79,68,30.04,29.97,14,2,14,0.06
2013-2-17,47.5,45.7,42.1,43.4,41.0,37.0,87,84,78,30.04,29.92,25,3,25,0.39
2013-2-18,54.0,46.9,40.3,42.0,38.7,35.9,86,74,56,30.07,30.02,12,1,12,0.00
2013-2-19,55.9,49.7,44.4,50.3,44.0,38.3,88,81,73,30.03,29.75,14,1,14,0.21
2013-2-20,60.6,51.6,45.0,42.4,38.9,37.0,79,63,42,30.03,29.79,18,1,18,0.00
2013-2-21,54.5,50.4,46.0,47.8,43.3,38.2,84,76,72,30.03,29.70,15,1,15,0.02
2013-2-22,55.9,52.5,49.6,51.4,48.3,45.5,90,85,80,29.70,29.54,24,2,24,2.14
2013-2-23,65.1,54.4,46.0,55.8,47.5,43.0,90,79,57,30.00,29.70,13,1,13,2.10
2013-2-24,68.5,57.3,48.2,56.0,48.2,43.8,89,73,52,30.07,29.99,20,2,20,2.10
2013-2-25,67.8,60.4,52.9,54.6,51.5,47.5,86,73,58,30.06,29.96,17,3,17,2.10
2013-2-26,67.1,60.3,52.9,54.5,48.1,40.7,82,65,42,30.03,29.94,17,2,17,2.10
2013-2-27,61.7,54.5,49.8,45.1,40.8,37.2,75,61,41,30.04,29.92,20,2,20,2.10
2013-2-28,53.4,49.4,46.6,41.4,39.6,37.7,76,69,62,30.19,30.03,20,3,20,2.10
2013-3-1,61.5,50.0,40.5,40.7,37.9,34.2,79,64,46,30.16,29.98,14,1,14,2.10
2013-3-2,62.1,51.2,41.7,47.0,41.5,35.9,82,70,57,29.99,29.84,15,2,15,2.10
2013-3-3,55.4,51.3,46.2,46.4,42.3,37.1,86,72,58,29.93,29.74,29,7,29,2.10
2013-3-4,62.8,51.0,41.7,43.6,39.8,36.6,82,67,43,30.15,29.93,10,1,10,2.10
2013-3-5,55.6,49.4,44.2,42.7,37.9,34.5,76,65,53,30.38,30.14,17,3,17,2.10
2013-3-6,60.6,51.1,44.4,40.3,36.8,34.5,69,58,44,30.37,30.12,15,2,15,0.00
2013-3-7,57.0,53.1,50.5,50.6,46.0,40.3,84,77,66,30.13,29.90,9,0,9,2.10
2013-3-8,65.7,56.1,49.6,53.8,49.4,45.9,88,79,59,29.90,29.83,11,1,11,2.10
2013-3-9,70.2,59.7,50.7,54.7,50.4,47.3,90,73,54,29.85,29.70,20,2,20,2.10
2013-3-10,70.3,60.1,52.2,51.4,48.4,44.7,83,67,42,29.80,29.70,14,2,14,2.10
2013-3-11,72.0,61.6,51.8,55.9,51.0,46.2,85,69,55,29.71,29.55,16,2,20,2.10
2013-3-12,70.3,62.3,55.8,46.5,44.1,40.3,66,52,35,29.70,29.56,22,2,22,2.10
2013-3-13,68.4,59.3,49.8,53.0,46.1,41.5,79,62,42,29.74,29.66,19,3,21,2.10
2013-3-14,70.7,62.9,57.6,53.6,48.4,40.1,81,61,36,29.70,29.28,27,6,27,2.10
2013-3-15,62.1,56.6,50.2,44.7,40.9,37.9,64,56,47,29.59,29.36,23,5,23,2.10
2013-3-16,54.7,49.8,45.3,42.2,37.3,34.6,70,62,49,29.98,29.58,14,2,14,2.10
2013-3-17,57.9,48.4,42.4,37.1,35.0,30.9,76,61,38,30.16,29.96,13,1,13,2.10
2013-3-18,57.6,50.5,42.6,46.9,40.5,34.4,79,69,52,30.17,29.93,16,3,16,0.00
2013-3-19,65.5,58.7,53.2,52.4,49.6,46.4,81,72,61,29.93,29.76,24,4,24,0.00
2013-3-20,70.5,60.3,48.7,55.2,48.9,44.4,86,68,49,29.90,29.80,12,1,13,2.10
2013-3-21,67.6,62.1,57.4,55.2,52.3,43.1,81,71,54,29.80,29.52,27,2,27,2.10
2013-3-22,65.1,58.0,52.5,43.1,37.9,31.5,64,48,35,29.75,29.53,24,5,24,2.10
2013-3-23,67.1,56.4,46.2,40.2,29.4,19.5,62,37,19,29.96,29.75,16,2,16,2.10
2013-3-24,68.2,57.2,45.7,51.3,44.8,38.2,77,64,50,30.00,29.91,21,3,21,2.10
2013-3-25,66.7,60.2,53.4,53.9,50.3,47.1,82,70,56,29.93,29.59,24,3,24,2.10
2013-3-26,67.8,61.0,54.7,53.3,48.1,44.3,82,64,48,29.64,29.51,23,3,23,0.00
2013-3-27,68.5,60.6,52.9,51.8,47.6,43.4,74,63,50,29.82,29.63,25,2,25,0.00
2013-3-28,68.9,59.2,54.0,54.0,49.2,44.7,81,70,58,30.04,29.82,12,1,12,0.10
2013-3-29,69.6,59.9,52.3,54.5,50.7,47.8,86,73,54,30.04,29.97,13,1,13,0.00
2013-3-30,75.4,64.1,55.2,53.7,51.4,49.5,83,65,42,29.98,29.81,22,1,22,0.00
2013-3-31,72.5,63.8,57.0,57.5,53.2,48.8,78,69,57,29.85,29.72,21,2,21,0.00
2013-4-1,72.5,63.8,53.4,53.8,45.2,37.8,82,54,29,29.86,29.75,22,2,22,0.00
2013-4-2,73.2,63.6,54.1,51.7,46.8,42.7,69,55,36,29.86,29.56,24,2,24,0.00
2013-4-3,71.2,64.2,58.8,55.0,47.9,42.0,80,57,37,29.65,29.45,23,3,25,0.00
2013-4-4,73.0,63.4,55.2,46.7,43.8,41.4,65,50,34,29.90,29.65,25,3,25,0.00
2013-4-5,73.2,63.0,53.8,52.3,45.3,38.6,71,54,30,29.93,29.78,26,3,26,0.00
2013-4-6,76.5,64.9,54.5,53.8,50.1,46.4,75,60,43,29.79,29.69,9,1,9,0.00
2013-4-7,70.2,64.4,60.3,57.4,51.7,46.5,76,64,54,29.70,29.28,25,4,25,0.02
2013-4-8,61.9,59.0,55.6,49.7,47.9,46.5,77,67,59,29.87,29.39,15,2,20,0.06
2013-4-9,70.3,60.5,51.1,50.2,46.4,43.1,81,62,40,29.98,29.86,24,2,24,0.00
2013-4-10,72.7,61.3,50.2,49.5,46.9,43.3,79,61,39,29.98,29.88,22,2,22,0.00
2013-4-11,76.8,62.7,51.3,51.9,46.8,43.2,77,58,31,30.01,29.90,18,1,18,0.00
2013-4-12,75.4,63.4,52.0,50.3,46.4,41.9,75,56,35,30.06,29.97,17,2,17,0.00
2013-4-13,77.9,65.2,53.4,51.2,47.0,43.0,71,53,36,30.09,30.03,18,2,18,0.00
2013-4-14,77.4,65.3,57.9,52.7,48.8,44.9,75,57,34,30.07,30.01,26,2,26,0.00
2013-4-15,63.0,58.8,55.6,47.4,43.7,38.8,67,57,43,30.08,29.98,25,5,25,0.00
2013-4-16,64.0,57.2,51.6,45.8,42.7,38.2,78,60,41,30.06,29.99,24,5,24,0.04
2013-4-17,66.0,58.6,53.8,41.1,37.5,27.8,60,47,24,30.08,30.01,27,7,27,0.00
2013-4-18,61.3,57.6,55.2,33.1,31.4,29.4,43,37,30,30.02,29.99,20,5,20,0.00
2013-4-19,62.2,56.2,49.8,46.3,37.8,33.1,72,51,41,30.01,29.92,24,3,24,0.02
2013-4-20,64.6,57.4,50.4,45.6,40.2,37.1,68,53,39,30.02,29.92,21,3,21,0.00
2013-4-21,71.4,61.0,50.5,46.2,40.9,37.5,64,49,31,30.03,29.93,25,2,25,0.00
2013-4-22,74.1,63.0,52.9,45.2,42.4,39.5,62,48,33,30.06,29.97,15,2,15,0.00
2013-4-23,73.6,64.2,55.6,49.6,45.5,40.4,65,51,40,30.21,30.06,16,2,16,0.00
2013-4-24,78.4,67.7,55.8,51.8,43.3,35.0,68,44,21,30.29,30.20,17,2,17,0.00
2013-4-25,81.3,70.8,60.1,50.0,45.9,42.2,53,42,30,30.27,30.14,20,2,20,0.00
2013-4-26,84.0,71.7,57.7,48.1,43.0,36.9,56,38,21,30.16,29.98,15,1,15,0.00
2013-4-27,82.9,71.4,58.3,46.1,43.8,41.4,56,39,26,30.00,29.89,22,2,22,0.00
2013-4-28,83.1,70.4,57.4,53.8,44.9,39.7,61,42,24,30.03,29.93,17,2,17,0.00
2013-4-29,87.4,72.4,59.2,52.2,45.1,39.8,54,39,23,30.10,30.02,17,1,17,0.00
2013-4-30,86.2,75.6,64.0,51.2,44.9,39.5,48,34,26,30.09,30.00,23,2,23,0.00
2013-5-1,85.6,75.8,64.6,53.0,48.0,41.2,56,38,26,30.04,29.93,25,2,25,0.00
2013-5-2,86.2,77.2,69.8,48.9,43.4,38.0,43,31,21,29.94,29.88,27,4,27,0.00
2013-5-3,88.3,75.8,65.1,57.9,50.2,41.9,53,41,29,29.91,29.80,19,2,19,0.00
2013-5-4,88.9,75.9,64.0,57.9,54.4,51.3,65,49,33,29.94,29.82,14,1,14,0.00
2013-5-5,90.1,77.7,66.0,55.8,52.9,50.4,60,44,29,30.03,29.91,14,2,14,0.00
2013-5-6,84.9,77.0,69.6,57.4,53.4,49.5,59,45,32,30.05,29.96,26,3,26,0.00
2013-5-7,82.8,75.1,69.4,54.0,51.5,49.4,55,44,35,29.98,29.84,24,3,24,0.00
2013-5-8,77.4,69.3,64.0,59.3,54.6,49.3,74,60,48,29.90,29.79,22,2,22,0.00
2013-5-9,75.6,66.6,61.5,58.1,54.9,53.2,75,66,52,29.88,29.80,28,4,28,0.00
2013-5-10,73.9,67.0,61.5,57.1,54.3,50.6,78,64,49,29.88,29.80,18,1,18,0.02
2013-5-11,81.7,70.8,60.6,58.2,53.9,50.8,72,56,41,29.86,29.73,20,2,20,0.00
2013-5-12,82.8,72.8,67.1,57.8,55.2,52.0,69,55,35,29.74,29.63,23,2,23,0.00
2013-5-13,75.9,66.4,60.4,59.9,52.8,49.1,84,63,41,29.68,29.62,17,2,17,0.23
2013-5-14,72.9,64.7,59.5,58.1,52.6,50.0,88,66,49,29.83,29.65,17,1,17,0.32
2013-5-15,80.2,69.1,56.5,56.9,52.4,49.0,78,57,39,29.87,29.81,17,2,17,0.00
2013-5-16,80.8,69.2,60.1,58.3,54.0,48.0,77,60,36,29.89,29.82,22,1,22,0.00
2013-5-17,81.3,71.0,63.5,61.9,56.6,52.8,77,61,42,29.92,29.80,14,1,14,0.02
2013-5-18,90.5,75.7,63.3,63.1,58.9,55.6,77,58,36,29.98,29.88,15,1,15,0.00
2013-5-19,92.5,78.9,67.8,62.4,57.9,55.6,69,50,30,29.96,29.87,17,1,17,0.00
2013-5-20,92.8,80.4,69.1,62.0,59.3,56.0,66,50,34,29.91,29.84,14,1,14,0.00
2013-5-21,93.0,83.9,69.1,59.5,55.8,51.4,62,40,26,29.91,29.84,18,2,18,0.00
2013-5-22,87.3,80.8,68.9,59.1,55.7,46.5,63,43,25,29.83,29.71,20,2,20,0.00
2013-5-23,87.1,78.5,72.1,61.0,54.3,47.1,61,44,31,29.72,29.57,26,5,26,0.00
2013-5-24,81.1,75.5,65.5,54.9,51.1,47.6,58,43,37,29.90,29.74,25,5,25,0.00
2013-5-25,82.6,73.4,65.3,54.7,50.5,46.9,55,45,30,29.93,29.86,28,4,28,0.00
2013-5-26,85.1,75.1,64.2,53.2,50.3,45.5,61,43,27,29.93,29.82,21,3,21,0.00
2013-5-27,82.0,72.8,64.2,49.9,43.7,36.8,50,36,21,29.94,29.88,19,2,19,0.00
2013-5-28,80.8,70.8,59.9,58.5,51.5,47.4,66,51,36,29.93,29.75,14,1,14,0.00
2013-5-29,88.3,77.3,70.5,61.8,53.5,41.6,59,44,34,29.75,29.55,20,2,20,0.00
2013-5-30,89.2,77.9,69.3,60.7,54.8,47.2,66,47,27,29.72,29.63,22,3,22,0.00
2013-5-31,83.3,73.1,68.2,55.6,48.5,40.8,57,43,27,29.78,29.64,24,3,24,0.00
2013-6-1,78.1,69.4,60.4,57.2,48.4,40.2,70,48,31,29.84,29.76,21,2,21,0.00
2013-6-2,81.0,70.7,62.4,57.1,52.1,44.5,76,54,33,29.81,29.64,26,3,26,0.04
2013-6-3,82.8,72.6,61.5,54.4,50.9,46.7,65,48,30,29.86,29.80,22,2,22,0.00
2013-6-4,84.0,74.4,64.9,56.8,53.2,47.6,66,49,30,29.87,29.79,27,4,27,0.00
2013-6-5,83.1,74.6,65.7,57.2,52.1,46.2,62,47,29,29.93,29.85,23,2,23,0.00
2013-6-6,83.1,73.8,64.2,61.4,56.4,51.9,68,56,37,30.00,29.91,18,2,18,0.00
2013-6-7,82.2,74.4,68.5,60.3,54.6,49.5,68,51,33,29.98,29.81,14,1,14,0.00
2013-6-8,83.1,73.2,67.8,63.7,58.4,55.4,75,61,40,29.85,29.77,21,2,21,0.06
2013-6-9,86.4,74.5,63.1,61.3,57.9,55.2,77,58,39,29.93,29.83,17,2,18,0.00
2013-6-10,88.3,77.3,65.8,61.4,58.3,55.5,71,53,38,29.93,29.80,19,2,19,0.00
2013-6-11,90.1,79.2,69.6,63.1,58.1,51.6,75,51,29,29.82,29.60,22,2,22,0.05
2013-6-12,86.4,72.6,65.1,63.1,55.5,50.7,80,57,33,29.76,29.63,18,1,18,0.28
2013-6-13,76.3,69.1,63.5,61.1,58.0,55.7,84,69,52,29.82,29.72,17,1,17,0.02
2013-6-14,80.2,71.6,65.1,63.8,58.7,56.3,77,64,47,29.91,29.80,14,1,14,0.02
2013-6-15,86.9,75.8,64.6,63.2,58.8,55.3,77,57,35,29.92,29.86,16,1,16,0.00
2013-6-16,93.4,79.2,66.0,65.6,59.6,49.7,71,54,24,29.95,29.89,24,2,24,0.00
2013-6-17,92.7,82.2,70.3,63.0,58.9,55.4,68,47,31,29.96,29.91,19,3,19,0.00
2013-6-18,90.0,86.5,81.5,60.9,58.3,55.3,49,39,32,29.96,29.90,27,8,27,0.00
2013-6-19,90.9,85.2,76.8,59.2,57.1,53.7,50,39,32,29.93,29.84,26,5,26,0.00
2013-6-20,91.8,84.8,79.0,59.3,55.9,52.8,48,38,31,29.94,29.82,28,8,28,0.00
2013-6-21,87.8,81.3,75.7,59.1,56.6,53.1,50,43,35,29.94,29.88,24,5,24,0.00
2013-6-22,92.8,82.7,70.9,56.8,51.5,44.3,57,36,21,29.91,29.82,28,3,28,0.00
2013-6-23,97.0,84.7,71.8,63.1,57.1,50.8,52,40,30,29.85,29.77,22,2,22,0.00
2013-6-24,98.4,85.4,73.6,62.2,58.2,53.0,58,41,26,29.80,29.74,18,2,20,0.00
2013-6-25,96.6,85.8,74.5,60.7,57.9,54.0,56,40,26,29.78,29.73,22,2,22,0.00
2013-6-26,96.1,83.4,72.5,66.2,60.4,56.1,58,47,32,29.87,29.76,16,2,16,0.00
2013-6-27,93.0,81.9,73.9,64.3,62.2,58.5,65,52,34,29.89,29.83,23,1,23,0.00
2013-6-28,90.9,80.3,71.8,66.6,62.5,59.0,69,56,36,29.91,29.85,17,2,17,0.00
2013-6-29,90.7,80.2,69.6,64.0,59.3,48.4,72,51,32,29.90,29.73,20,3,20,0.00
2013-6-30,88.3,78.2,70.5,58.5,53.4,48.4,56,43,29,29.85,29.73,20,2,20,0.00
2013-7-1,87.1,77.6,70.0,60.8,53.9,48.0,59,46,27,29.99,29.85,25,2,25,0.00
2013-7-2,90.0,78.4,67.6,60.9,56.3,50.2,68,48,28,30.00,29.92,17,2,17,0.00
2013-7-3,88.5,78.7,69.6,58.9,53.3,50.2,56,42,33,29.95,29.85,19,3,19,0.00
2013-7-4,87.4,78.6,68.5,57.8,53.1,48.7,56,42,33,29.91,29.83,20,2,20,0.00
2013-7-5,85.8,78.8,69.4,61.2,54.5,48.5,57,44,33,29.90,29.83,26,4,26,0.00
2013-7-6,85.3,79.5,72.3,62.6,58.2,54.3,63,49,39,29.88,29.79,26,4,26,0.00
2013-7-7,82.2,78.8,75.7,61.3,59.2,56.6,58,51,42,29.93,29.81,23,5,26,0.00
2013-7-8,91.2,84.0,76.5,59.0,55.8,52.9,51,39,28,29.96,29.91,26,5,26,0.00
2013-7-9,91.0,84.2,78.1,61.6,57.2,53.1,48,40,32,29.96,29.81,26,5,26,0.00
2013-7-10,89.8,83.1,75.0,62.0,58.8,52.5,59,45,34,29.84,29.72,25,3,25,0.00
2013-7-11,92.5,82.7,73.2,62.2,57.3,52.4,57,43,30,29.82,29.74,21,2,21,0.00
2013-7-12,94.5,83.6,73.2,62.8,59.3,54.5,62,45,31,29.89,29.81,16,2,16,0.00
2013-7-13,90.7,83.3,74.7,62.9,60.1,54.8,60,46,36,29.90,29.84,21,3,21,0.00
2013-7-14,90.9,82.5,73.6,60.9,57.7,55.1,60,44,31,29.91,29.82,25,3,25,0.00
2013-7-15,90.7,81.5,73.2,58.9,56.0,53.0,54,42,32,29.89,29.82,25,2,25,0.00
2013-7-16,88.3,80.9,73.2,59.0,55.9,52.5,55,43,35,29.91,29.84,24,3,24,0.00
2013-7-17,81.0,76.9,73.9,60.1,56.9,52.6,59,50,42,29.96,29.91,26,6,26,0.00
2013-7-18,84.4,78.6,73.8,58.1,54.8,49.5,56,44,31,29.99,29.92,26,8,26,0.00
2013-7-19,86.2,79.5,73.9,54.9,52.8,48.2,50,40,31,29.98,29.89,26,6,26,0.00
2013-7-20,88.9,79.9,70.0,57.6,53.2,47.8,59,41,28,29.90,29.79,26,4,26,0.00
2013-7-21,91.4,82.2,70.5,57.7,54.6,49.7,57,40,28,29.86,29.80,26,4,26,0.00
2013-7-22,84.4,78.9,75.0,62.2,58.3,53.3,63,50,37,29.88,29.82,28,5,28,0.00
2013-7-23,86.4,78.8,70.3,60.1,52.4,42.8,62,42,23,29.87,29.81,27,4,27,0.00
2013-7-24,93.0,82.3,70.0,53.2,50.2,46.8,49,34,22,29.90,29.84,25,3,25,0.00
2013-7-25,97.9,84.4,71.4,58.8,52.8,46.0,50,35,18,29.92,29.84,22,2,22,0.00
2013-7-26,96.6,86.2,73.4,59.3,53.7,50.0,47,34,23,29.88,29.80,20,2,20,0.00
2013-7-27,92.5,84.5,76.1,59.5,55.3,52.1,48,37,29,29.91,29.82,24,3,24,0.00
2013-7-28,91.8,84.0,76.8,60.1,56.2,51.8,52,39,31,29.98,29.90,26,3,26,0.00
2013-7-29,93.9,85.5,76.6,57.4,54.5,50.9,50,36,24,29.99,29.90,25,3,25,0.00
2013-7-30,99.7,88.2,76.3,64.1,58.4,52.8,51,38,27,29.91,29.74,20,2,20,0.00
2013-7-31,95.4,86.8,78.8,66.4,61.2,55.7,49,43,34,29.79,29.70,26,4,26,0.00
2013-8-1,88.0,82.9,78.4,65.8,60.8,56.0,64,48,37,29.92,29.78,25,6,27,0.00
2013-8-2,88.0,82.0,77.4,61.4,57.6,53.0,55,44,34,29.94,29.90,28,6,28,0.00
2013-8-3,90.0,83.6,76.6,60.1,56.4,51.6,53,40,29,29.93,29.89,28,5,28,0.00
2013-8-4,94.3,85.9,77.4,59.7,55.6,47.9,49,37,23,29.93,29.87,26,4,26,0.00
2013-8-5,87.3,82.0,77.5,61.3,53.5,47.1,51,38,26,29.95,29.89,28,8,28,0.00
2013-8-6,86.7,81.6,77.7,56.1,52.9,47.2,44,37,27,29.92,29.85,27,8,27,0.00
2013-8-7,88.7,82.4,77.7,55.9,53.8,49.6,46,38,28,29.92,29.85,29,6,29,0.00
2013-8-8,91.6,84.2,78.6,59.6,53.1,48.5,45,35,24,29.94,29.87,27,6,27,0.00
2013-8-9,81.5,79.0,76.3,57.7,56.2,54.5,52,46,40,29.92,29.86,14,1,14,0.00
2013-8-28,99.3,91.2,85.1,64.3,60.7,56.9,44,37,25,29.83,29.78,22,4,22,0.00
2013-8-29,96.8,85.6,75.7,66.6,61.1,55.7,60,45,27,29.88,29.82,21,1,21,0.00
2013-8-30,93.9,83.9,76.6,64.5,60.1,53.6,62,46,29,29.92,29.82,20,1,20,0.00
2013-8-31,85.8,78.8,74.1,64.5,57.8,52.7,62,49,35,29.97,29.88,22,3,22,0.00
2013-9-1,87.3,78.1,71.8,60.3,53.2,45.1,64,43,31,30.04,29.96,19,3,19,0.00
2013-9-2,88.9,78.1,70.3,58.8,50.6,42.5,57,39,26,30.06,29.97,21,2,21,0.00
2013-9-3,90.7,78.8,68.7,65.3,59.3,55.5,66,52,36,30.06,29.94,17,2,17,0.00
2013-9-4,84.0,77.7,70.9,60.5,56.9,52.8,61,49,36,30.09,29.97,24,5,24,0.00
2013-9-5,86.2,74.8,65.1,55.3,52.1,47.9,63,46,31,30.09,29.94,23,2,23,0.00
2013-9-6,88.2,76.8,66.9,64.3,58.3,52.1,63,53,40,29.96,29.86,23,2,23,0.00
2013-9-7,84.4,76.2,70.3,65.5,60.8,56.8,70,59,45,30.00,29.90,9,1,9,0.00
2013-9-8,86.7,76.1,66.9,60.3,55.1,48.5,70,50,35,30.09,29.98,19,2,19,0.00
2013-9-9,83.8,75.6,68.0,53.8,51.1,47.0,58,43,33,30.12,30.05,16,2,17,0.00
2013-9-10,88.9,77.0,66.7,62.6,55.7,46.9,60,49,36,30.08,29.98,19,1,19,0.00
2013-9-11,91.2,79.6,68.7,65.8,60.6,54.5,64,53,39,30.01,29.91,15,1,15,0.00
2013-9-12,94.5,81.5,70.5,66.3,61.8,57.8,69,53,30,29.94,29.89,17,2,17,0.00
2013-9-13,92.8,81.9,73.8,66.3,62.7,58.9,70,53,34,29.93,29.87,25,2,25,0.00
2013-9-14,88.0,78.2,71.8,61.1,54.7,42.7,59,46,21,30.00,29.91,19,1,19,0.00
2013-9-15,86.9,75.8,67.3,57.3,50.7,37.7,63,45,20,29.98,29.86,17,2,17,0.00
2013-9-16,82.8,74.8,67.3,64.4,57.7,53.8,72,56,39,29.88,29.62,23,2,23,0.00
2013-9-17,85.3,75.6,66.0,62.3,58.3,55.1,70,56,39,29.70,29.62,23,3,23,0.00
2013-9-18,87.1,78.3,71.1,62.7,56.5,48.0,69,49,28,29.66,29.59,26,3,26,0.00
2013-9-19,87.1,75.9,66.4,61.5,57.0,54.2,67,53,35,29.74,29.64,20,2,20,0.00
2013-9-20,85.6,75.9,67.6,63.9,59.0,54.8,72,57,36,29.92,29.72,18,1,18,0.08
2013-9-21,79.5,72.3,67.8,62.5,59.0,56.2,77,64,48,30.01,29.91,17,3,17,0.00
2013-9-22,76.1,69.6,64.9,56.9,53.1,50.2,65,56,43,30.05,29.99,24,3,24,0.00
2013-9-23,76.3,68.7,62.1,53.7,49.6,46.3,68,51,38,30.02,29.89,24,3,24,0.00
2013-9-24,82.6,70.4,59.7,58.6,52.3,45.8,70,54,34,29.93,29.86,20,2,20,0.00
2013-9-25,84.2,72.9,61.5,63.1,57.8,52.8,74,61,37,29.99,29.92,19,2,19,0.00
2013-9-26,85.1,74.2,64.9,63.6,60.1,55.0,82,63,38,29.99,29.85,17,2,17,0.00
2013-9-27,87.4,75.3,64.0,62.4,57.7,52.5,75,57,32,29.90,29.82,14,2,14,0.00
2013-9-28,86.2,73.9,63.7,62.6,58.6,54.2,74,60,34,29.91,29.85,9,2,14,0.00
2013-9-29,86.0,74.7,64.9,64.3,60.2,56.8,76,62,44,29.91,29.83,14,2,14,0.00
2013-9-30,85.8,75.5,66.6,67.1,61.8,56.4,79,63,45,29.86,29.62,20,2,20,0.02
2013-10-1,80.6,73.3,66.0,68.1,61.7,54.8,88,69,45,29.64,29.50,24,3,24,0.70
2013-10-2,74.5,68.0,61.9,58.8,55.6,52.8,73,65,51,29.91,29.59,24,3,24,0.00
2013-10-3,63.7,59.7,57.6,52.8,49.2,45.0,80,68,57,30.22,29.91,21,5,21,0.08
2013-10-4,59.5,56.9,54.7,46.5,44.4,42.0,72,63,57,30.31,30.21,16,5,18,0.00
2013-10-5,63.1,57.0,53.2,44.1,42.8,41.0,67,59,49,30.32,30.22,21,4,21,0.00
2013-10-6,65.8,57.6,52.0,46.2,44.5,42.5,73,62,48,30.29,30.22,15,2,15,0.00
2013-10-7,68.5,60.3,54.0,48.3,46.6,44.2,72,61,46,30.31,30.24,22,4,22,0.00
2013-10-8,74.5,64.7,58.3,52.6,48.9,45.4,64,57,42,30.30,30.21,14,2,14,0.00
2013-10-9,77.7,66.2,57.0,53.9,50.3,46.9,73,58,35,30.24,30.11,14,1,14,0.00
2013-10-10,70.5,64.4,59.4,62.0,57.1,51.8,83,77,69,30.12,30.02,12,1,12,0.00
2013-10-11,82.9,69.7,59.7,63.2,59.0,54.9,86,71,44,30.16,30.06,11,1,11,0.00
2013-10-12,84.7,72.3,62.4,66.4,62.2,57.5,85,72,48,30.18,30.10,11,1,11,0.00
2013-10-13,81.9,72.2,64.2,64.2,59.5,54.2,84,66,48,30.14,30.06,15,2,15,0.00
2013-10-14,81.0,71.9,65.8,57.7,54.8,51.9,74,56,40,30.12,30.03,18,3,18,0.00
2013-10-15,80.4,70.4,61.7,63.0,58.0,50.9,79,65,52,30.11,29.93,16,2,16,0.00
2013-10-16,69.6,67.4,65.1,63.7,61.1,58.6,83,80,76,29.93,29.54,18,1,18,0.22
2013-10-17,70.7,65.4,61.2,63.2,51.9,42.6,84,63,41,29.71,29.47,24,3,24,0.06
2013-10-18,76.3,67.4,61.3,53.0,48.8,45.3,64,52,38,29.99,29.70,22,4,22,0.00
2013-10-19,73.9,67.1,60.1,49.6,44.5,41.0,65,45,33,30.30,29.99,20,3,20,0.00
2013-10-20,71.8,63.4,57.7,52.0,47.1,43.4,72,56,41,30.37,30.29,20,3,20,0.00
2013-10-21,75.7,63.2,53.2,51.5,46.7,41.3,67,56,37,30.30,30.15,12,2,12,0.00
2013-10-22,77.5,64.2,54.7,57.4,52.2,47.6,82,67,45,30.17,30.08,11,2,11,0.00
2013-10-23,76.6,65.8,56.1,54.8,50.5,44.9,71,59,46,30.17,30.11,24,3,24,0.00
2013-10-24,74.3,67.2,61.2,53.5,49.5,43.9,69,54,43,30.18,30.11,25,2,25,0.00
2013-10-25,77.0,63.8,54.0,51.1,45.5,40.0,69,53,33,30.14,30.07,6,1,10,0.00
2013-10-26,77.4,62.6,50.7,45.3,40.2,36.0,58,45,28,30.16,30.09,10,1,10,0.00
2013-10-27,79.7,62.8,51.6,53.4,41.7,33.7,67,48,28,30.14,30.05,9,1,9,0.00
2013-10-28,77.5,63.3,52.5,56.1,50.4,45.4,77,65,38,30.08,30.02,9,2,9,0.00
2013-10-29,78.6,63.7,52.0,57.3,51.4,45.9,80,66,38,30.04,29.95,10,2,10,0.00
2013-10-30,78.6,65.4,55.8,58.3,52.6,48.3,80,64,46,30.05,29.98,14,2,14,0.00
2013-10-31,75.6,65.2,56.8,55.0,49.8,46.2,75,59,45,30.14,30.03,21,2,21,0.00
2013-11-1,74.5,64.5,58.1,52.9,49.7,46.2,70,59,45,30.16,30.09,15,2,15,0.00
2013-11-2,72.7,61.3,53.4,53.5,50.0,46.0,78,67,49,30.14,30.04,12,1,12,0.00
2013-11-3,74.5,63.1,54.1,59.8,54.7,48.5,85,75,57,30.08,30.00,12,2,12,0.00
2013-11-4,75.9,65.3,57.0,63.0,57.2,52.9,87,76,55,30.03,29.91,12,1,12,0.00
2013-11-5,74.1,66.7,60.6,61.2,58.3,55.7,86,75,56,29.91,29.70,27,5,27,0.00
2013-11-6,69.4,62.2,59.0,58.0,55.9,54.2,88,80,59,29.70,29.55,31,3,31,1.08
2013-11-7,67.8,61.6,55.6,58.5,51.6,40.5,88,71,48,30.09,29.65,25,3,25,0.02
2013-11-8,72.5,61.1,52.9,51.6,46.9,41.4,73,60,43,30.14,30.07,11,1,11,0.00
2013-11-9,75.0,62.1,53.8,55.3,51.2,46.4,80,69,47,30.09,29.99,8,1,8,0.00
2013-11-10,71.8,59.6,52.5,59.7,53.5,48.4,86,80,62,29.99,29.83,11,1,11,0.00
2013-11-11,70.3,64.0,59.4,63.9,58.5,54.9,88,82,70,29.96,29.80,24,2,24,0.90
2013-11-12,70.0,65.1,61.3,63.8,60.6,57.0,90,86,76,30.05,29.94,18,2,18,0.08
2013-11-13,68.7,62.3,59.5,57.9,55.4,53.4,87,78,65,30.05,29.93,21,4,21,0.04
2013-11-14,62.4,59.0,56.8,55.6,53.7,52.0,88,82,76,29.95,29.84,23,4,23,0.60
2013-11-15,63.3,58.5,55.2,54.4,51.3,49.5,83,77,67,30.10,29.87,19,3,19,0.02
2013-11-16,60.6,57.4,56.1,51.6,49.4,46.1,81,75,69,30.16,30.07,23,6,23,0.02
2013-11-17,63.9,56.5,51.8,46.7,44.1,41.9,73,64,50,30.16,30.08,21,2,21,0.02
2013-11-18,61.2,54.2,49.1,48.3,44.2,41.5,79,69,56,30.13,30.07,18,2,18,0.02
2013-11-19,65.1,57.1,51.1,50.0,47.1,43.0,79,70,56,30.12,30.00,12,1,12,0.00
2013-11-20,67.6,61.9,57.9,62.6,56.6,50.4,88,83,76,30.00,29.84,17,1,17,0.18
2013-11-21,69.6,61.3,54.3,60.3,54.7,50.5,88,80,63,29.87,29.73,24,2,24,1.08
2013-11-22,68.0,58.9,53.4,58.1,52.0,47.2,89,79,58,29.79,29.68,14,1,14,0.02
2013-11-23,67.8,58.7,52.0,58.5,52.4,47.2,87,80,67,29.80,29.72,22,3,22,0.06
2013-11-24,61.9,57.5,54.3,55.8,53.3,50.2,88,86,79,29.78,29.65,24,1,24,1.21
2013-11-25,65.7,56.3,49.6,55.9,49.5,46.7,90,79,57,29.72,29.67,14,1,14,0.02
2013-11-26,66.4,56.0,50.9,53.0,49.4,46.2,86,79,59,29.76,29.67,13,1,13,0.10
2013-11-27,62.2,53.5,48.0,47.3,42.2,37.0,87,68,43,30.20,29.75,14,1,14,0.00
2013-11-28,57.6,50.0,44.2,44.2,39.1,35.0,82,67,47,30.30,30.20,14,1,14,0.00
2013-11-29,61.9,49.6,40.5,46.1,39.9,33.5,79,70,53,30.22,30.07,9,2,9,0.00
2013-11-30,54.9,52.0,48.4,48.7,45.4,42.4,83,78,72,30.12,30.03,12,3,12,0.14
2013-12-1,62.4,58.2,52.3,57.2,53.0,47.3,85,83,79,30.05,29.90,24,3,24,0.08
2013-12-2,61.0,58.7,56.5,56.5,54.3,51.1,90,85,81,30.08,29.93,19,4,19,1.06
2013-12-3,56.8,49.7,44.1,51.4,42.5,36.5,82,76,66,30.18,30.03,44,12,44,0.00
2013-12-4,50.4,45.9,41.9,38.9,36.8,32.5,79,71,61,30.14,30.03,25,2,25,0.02
2013-12-5,60.1,46.6,37.6,42.3,34.5,30.5,83,65,39,30.10,30.01,8,1,8,0.00
2013-12-6,60.4,47.7,38.5,43.1,35.9,29.9,76,64,45,30.06,29.85,12,1,12,0.00
2013-12-7,56.1,49.2,44.6,49.8,39.0,29.1,85,69,51,30.21,29.84,19,2,19,0.00
2013-12-8,53.8,46.4,39.9,32.2,28.3,24.8,63,50,34,30.39,30.20,14,1,14,0.00
2013-12-9,59.2,46.8,37.0,36.8,31.9,27.3,70,57,34,30.40,30.19,16,1,16,0.00
2013-12-10,57.9,48.8,41.7,42.4,37.5,33.4,81,66,44,30.36,30.10,28,4,28,0.08
2013-12-11,45.5,42.4,39.7,33.4,25.3,20.4,65,51,37,30.50,30.36,28,7,28,0.00
2013-12-12,50.9,43.6,36.7,36.0,29.7,23.1,68,58,40,30.43,30.24,17,2,17,0.00
2013-12-13,49.3,46.5,42.6,40.8,38.7,36.0,81,74,68,30.24,30.14,13,1,13,0.00
2013-12-14,59.0,47.5,39.4,45.5,38.8,35.0,84,73,50,30.34,30.18,7,1,7,0.00
2013-12-15,59.2,51.4,45.0,51.0,44.5,38.9,84,77,67,30.34,30.27,7,1,7,0.00
2013-12-16,55.0,51.3,48.7,47.2,44.2,39.0,86,77,63,30.37,30.27,23,4,23,0.00
2013-12-17,49.3,47.8,45.0,40.5,38.8,36.6,76,71,63,30.41,30.32,21,6,22,0.00
2013-12-18,49.8,46.6,43.2,40.5,38.0,35.2,76,72,67,30.32,30.21,17,3,17,0.00
2013-12-19,53.1,47.8,43.0,41.5,37.9,34.5,77,69,55,30.27,30.20,16,2,16,0.00
2013-12-20,57.7,46.9,39.9,41.6,37.0,33.5,80,69,47,30.44,30.26,8,2,8,0.00
2013-12-21,59.2,47.2,39.6,46.6,38.7,33.2,83,73,55,30.50,30.42,6,1,6,0.00
2013-12-22,61.9,48.1,38.8,42.4,36.6,30.8,75,65,43,30.48,30.35,13,2,13,0.00
2013-12-23,58.8,48.8,41.5,44.1,40.3,35.8,82,73,53,30.36,30.26,11,2,11,0.00
2013-12-24,52.9,50.5,47.3,46.0,43.9,41.5,81,78,74,30.29,30.16,23,3,23,0.00
2013-12-25,58.8,54.3,51.6,51.2,48.7,45.8,85,81,73,30.19,30.03,16,4,16,0.05
2013-12-26,63.1,56.2,51.1,55.4,50.6,46.8,87,82,71,30.05,29.84,16,1,16,0.04
2013-12-27,59.5,56.1,52.3,53.7,51.1,49.2,89,84,71,29.85,29.76,20,3,20,1.83
2013-12-28,57.9,53.7,50.7,51.2,49.1,44.4,90,84,77,29.91,29.78,20,3,20,0.04
2013-12-29,62.6,53.2,47.8,49.3,44.3,40.6,82,72,54,30.06,29.88,12,1,12,0.02
2013-12-30,63.7,51.7,44.1,47.4,42.5,38.3,82,71,53,30.11,30.03,9,0,9,0.00
2013-12-31,51.1,48.9,46.6,42.8,41.2,39.2,79,75,70,30.16,30.08,15,2,15,0.00
2014-1-1,49.3,48.1,46.6,44.3,41.7,39.1,84,78,74,30.15,30.05,14,2,14,0.37
2014-1-2,57.9,51.4,47.5,48.8,44.3,40.5,84,77,65,30.11,30.03,11,1,11,0.00